createdAt,value
2022-11-21T00:00:57.011Z,358.11
2022-11-21T00:03:05.054Z,366.24
2022-11-21T00:05:13.788Z,364.14
2022-11-21T00:07:19.555Z,370.16
2022-11-21T00:09:30.055Z,388.51
2022-11-21T00:11:35.822Z,376.14
2022-11-21T00:13:42.628Z,372.25
2022-11-21T00:15:50.367Z,358.74
2022-11-21T00:18:14.416Z,389.81
2022-11-21T00:20:28.906Z,393.97
2022-11-21T00:22:41.314Z,416.28
2022-11-21T00:24:50.494Z,413.76
2022-11-21T00:26:58.906Z,411.19
2022-11-21T00:29:24.971Z,405.87
2022-11-21T00:31:31.538Z,394.48
2022-11-21T00:33:41.640Z,380.38
2022-11-21T00:35:51.024Z,379.49
2022-11-21T00:37:57.043Z,379.42
2022-11-21T00:40:20.031Z,370.61
2022-11-21T00:42:26.696Z,361.43
2022-11-21T00:44:38.805Z,359.87
2022-11-21T00:46:50.796Z,360.41
2022-11-21T00:48:57.722Z,356.69
2022-11-21T00:51:12.597Z,369.06
2022-11-21T00:53:18.653Z,374.40
2022-11-21T00:55:37.451Z,385.51
2022-11-21T00:57:43.406Z,383.47
2022-11-21T00:59:49.201Z,391.24
2022-11-21T01:01:56.221Z,405.49
2022-11-21T01:04:02.693Z,392.69
2022-11-21T01:06:13.776Z,396.08
2022-11-21T01:08:20.483Z,385.83
2022-11-21T01:10:26.195Z,388.12
2022-11-21T01:12:32.102Z,376.57
2022-11-21T01:14:38.860Z,384.02
2022-11-21T01:16:45.371Z,393.57
2022-11-21T01:18:52.471Z,398.22
2022-11-21T01:21:03.236Z,414.50
2022-11-21T01:23:11.799Z,381.04
2022-11-21T01:25:17.853Z,380.55
2022-11-21T01:27:26.108Z,450.23
2022-11-21T01:29:32.168Z,461.77
2022-11-21T01:31:38.637Z,482.38
2022-11-21T01:33:46.622Z,515.59
2022-11-21T01:35:52.374Z,521.65
2022-11-21T01:37:58.195Z,532.27
2022-11-21T01:40:08.643Z,528.77
2022-11-21T01:42:16.785Z,511.01
2022-11-21T01:44:27.297Z,506.50
2022-11-21T01:46:40.977Z,420.80
2022-11-21T01:49:15.974Z,411.55
2022-11-21T01:51:33.348Z,412.48
2022-11-21T01:53:45.463Z,416.78
2022-11-21T01:55:56.671Z,415.01
2022-11-21T01:58:04.763Z,453.20
2022-11-21T02:00:22.183Z,545.13
2022-11-21T02:02:35.970Z,465.75
2022-11-21T02:04:47.512Z,513.98
2022-11-21T02:06:55.405Z,500.89
2022-11-21T02:09:04.545Z,450.90
2022-11-21T02:11:24.883Z,353.64
2022-11-21T02:13:31.533Z,362.51
2022-11-21T02:15:41.602Z,350.01
2022-11-21T02:17:47.481Z,340.94
2022-11-21T02:20:01.075Z,351.18
2022-11-21T02:22:21.557Z,480.13
2022-11-21T02:24:41.457Z,379.39
2022-11-21T02:26:52.588Z,367.50
2022-11-21T02:39:53.048Z,423.97
2022-11-21T02:44:26.069Z,423.29
2022-11-21T02:46:34.504Z,423.19
2022-11-21T02:48:42.081Z,420.95
2022-11-21T02:50:50.653Z,420.55
2022-11-21T02:53:00.093Z,423.57
2022-11-21T02:55:06.126Z,406.17
2022-11-21T02:57:12.049Z,402.21
2022-11-21T02:59:21.389Z,384.70
2022-11-21T03:01:27.329Z,378.10
2022-11-21T03:03:36.568Z,360.99
2022-11-21T03:05:44.316Z,342.53
2022-11-21T03:07:50.632Z,328.38
2022-11-21T03:09:57.353Z,321.49
2022-11-21T03:12:09.946Z,318.64
2022-11-21T03:14:15.907Z,322.27
2022-11-21T03:16:24.537Z,338.87
2022-11-21T03:18:31.309Z,381.88
2022-11-21T03:23:11.423Z,361.92
2022-11-21T03:25:20.929Z,376.63
2022-11-21T03:27:38.985Z,409.98
2022-11-21T03:29:44.795Z,453.04
2022-11-21T03:32:04.171Z,462.64
2022-11-21T03:34:20.234Z,446.50
2022-11-21T03:36:26.162Z,467.08
2022-11-21T03:38:40.895Z,470.41
2022-11-21T03:40:46.600Z,479.16
2022-11-21T03:42:52.291Z,474.37
2022-11-21T03:44:59.044Z,460.04
2022-11-21T03:47:04.810Z,483.50
2022-11-21T03:49:11.807Z,615.10
2022-11-21T03:51:23.698Z,714.07
2022-11-21T03:53:29.442Z,580.59
2022-11-21T03:55:37.860Z,653.41
2022-11-21T03:57:44.639Z,522.04
2022-11-21T03:59:50.489Z,484.74
2022-11-21T04:06:31.579Z,501.05
2022-11-21T04:08:38.367Z,542.70
2022-11-21T04:10:50.298Z,456.40
2022-11-21T04:12:55.998Z,420.92
2022-11-21T04:15:02.862Z,437.05
2022-11-21T04:17:08.784Z,417.23
2022-11-21T04:19:14.840Z,423.20
2022-11-21T04:21:21.612Z,441.89
2022-11-21T04:23:31.544Z,476.37
2022-11-21T04:25:37.758Z,529.30
2022-11-21T04:27:44.378Z,572.36
2022-11-21T04:29:50.239Z,617.63
2022-11-21T04:31:56.134Z,590.62
2022-11-21T04:34:02.867Z,569.46
2022-11-21T04:36:17.015Z,577.78
2022-11-21T07:26:49.542Z,1210.56
2022-11-21T07:28:56.719Z,1190.50
2022-11-21T07:31:13.164Z,1172.95
2022-11-21T07:33:23.786Z,1110.40
2022-11-21T07:35:31.965Z,1086.03
2022-11-21T07:37:42.470Z,1117.48
2022-11-21T07:39:48.227Z,961.22
2022-11-21T07:41:57.336Z,1124.13
2022-11-21T07:44:10.054Z,1093.80
2022-11-21T07:46:36.327Z,1001.55
2022-11-21T07:48:42.838Z,997.71
2022-11-21T07:50:48.464Z,999.11
2022-11-21T07:52:54.110Z,1077.63
2022-11-21T07:55:02.537Z,1078.97
2022-11-21T07:57:10.963Z,926.78
2022-11-21T07:59:19.416Z,820.79
2022-11-21T08:01:34.145Z,819.68
2022-11-21T08:03:39.933Z,844.24
2022-11-21T08:05:47.727Z,1007.21
2022-11-21T08:07:55.483Z,1122.25
2022-11-21T08:10:01.206Z,1076.18
2022-11-21T08:12:26.485Z,1036.87
2022-11-21T08:14:35.201Z,801.22
2022-11-21T08:16:56.487Z,791.40
2022-11-21T08:19:02.840Z,813.63
2022-11-21T16:19:04.260Z,402.95
2022-11-21T16:21:18.189Z,402.37
2022-11-21T16:23:23.909Z,400.39
2022-11-21T16:25:29.544Z,406.24
2022-11-21T16:27:36.338Z,397.48
2022-11-21T16:29:42.032Z,338.36
2022-11-21T16:31:55.313Z,350.61
2022-11-21T16:34:16.158Z,369.11
2022-11-21T16:36:26.747Z,364.08
2022-11-21T16:38:35.488Z,356.28
2022-11-21T16:40:42.435Z,345.60
2022-11-21T16:42:48.047Z,394.57
2022-11-21T16:44:56.153Z,448.38
2022-11-21T16:47:09.294Z,458.38
2022-11-21T16:49:23.766Z,568.84
2022-11-21T16:51:31.686Z,504.95
2022-11-21T16:53:38.171Z,444.98
2022-11-21T16:55:43.952Z,370.91
2022-11-21T16:57:49.830Z,361.32
2022-11-21T16:59:59.087Z,352.56
2022-11-21T17:02:07.831Z,373.45
2022-11-21T17:04:17.164Z,357.23
2022-11-21T17:06:31.262Z,338.79
2022-11-21T17:08:40.803Z,339.01
2022-11-21T17:10:46.585Z,381.85
2022-11-21T17:12:53.040Z,372.54
2022-11-21T17:14:58.678Z,387.48
2022-11-21T17:17:06.385Z,381.96
2022-11-21T17:19:16.456Z,366.50
2022-11-21T17:21:30.376Z,359.11
2022-11-21T17:23:41.925Z,345.30
2022-11-21T17:25:48.465Z,338.76
2022-11-21T17:27:54.249Z,360.59
2022-11-21T17:30:00.037Z,388.95
2022-11-21T17:32:09.384Z,377.54
2022-11-21T17:34:15.661Z,469.09
2022-11-21T17:36:24.720Z,458.15
2022-11-21T17:38:31.401Z,636.65
2022-11-21T17:40:39.777Z,528.30
2022-11-21T17:42:45.482Z,493.91
2022-11-21T17:44:52.075Z,438.73
2022-11-21T17:46:59.465Z,437.10
2022-11-21T17:49:05.474Z,434.49
2022-11-21T17:51:16.753Z,517.22
2022-11-21T17:53:22.576Z,554.81
2022-11-21T17:55:28.238Z,537.75
2022-11-21T17:57:37.330Z,516.32
2022-11-21T17:59:48.910Z,460.32
2022-11-21T18:01:54.725Z,478.99
2022-11-21T18:04:05.751Z,496.59
2022-11-21T18:06:17.748Z,472.59
2022-11-21T18:08:23.528Z,490.67
2022-11-21T18:10:43.375Z,542.80
2022-11-21T18:12:52.121Z,692.44
2022-11-21T18:14:57.800Z,548.13
2022-11-21T18:17:04.423Z,523.59
2022-11-21T18:19:10.666Z,583.40
2022-11-21T18:21:20.124Z,606.77
2022-11-21T18:34:57.566Z,544.46
2022-11-21T18:37:04.439Z,535.13
2022-11-21T18:39:14.806Z,598.58
2022-11-21T18:41:24.689Z,520.05
2022-11-21T18:43:31.423Z,484.52
2022-11-21T18:45:37.313Z,471.54
2022-11-21T18:47:43.852Z,452.66
2022-11-21T18:49:50.634Z,518.69
2022-11-21T18:51:59.810Z,570.06
2022-11-21T18:54:10.623Z,594.48
2022-11-21T18:56:19.176Z,640.77
2022-11-21T18:58:27.300Z,593.25
2022-11-21T19:00:33.258Z,585.28
2022-11-21T19:02:39.989Z,620.24
2022-11-21T19:04:45.941Z,651.22
2022-11-21T19:06:51.906Z,607.17
2022-11-21T19:09:08.520Z,570.00
2022-11-21T19:11:17.842Z,558.60
2022-11-21T19:13:24.048Z,546.69
2022-11-21T19:17:53.953Z,573.80
2022-11-21T19:22:32.125Z,601.63
2022-11-21T19:24:40.688Z,595.19
2022-11-21T19:26:47.169Z,590.95
2022-11-21T19:29:19.376Z,593.56
2022-11-21T19:31:25.247Z,538.75
2022-11-21T19:33:33.517Z,495.78
2022-11-21T19:35:40.989Z,512.25
2022-11-21T19:37:47.275Z,480.51
2022-11-21T19:39:55.781Z,484.99
2022-11-21T19:42:02.635Z,480.51
2022-11-21T19:44:08.890Z,464.88
2022-11-21T19:46:31.314Z,448.70
2022-11-21T19:48:38.275Z,517.80
2022-11-21T19:50:49.956Z,531.46
2022-11-21T19:52:58.304Z,614.23
2022-11-21T19:55:09.710Z,708.46
2022-11-21T19:57:16.068Z,645.41
2022-11-21T19:59:23.110Z,648.83
2022-11-21T20:01:34.074Z,633.43
2022-11-21T20:03:43.935Z,654.24
2022-11-21T20:05:52.342Z,713.85
2022-11-21T20:08:04.930Z,673.74
2022-11-21T20:10:17.927Z,585.95
2022-11-21T20:12:24.460Z,556.89
2022-11-21T20:14:31.678Z,580.91
2022-11-21T20:16:41.543Z,534.34
2022-11-21T20:18:47.881Z,545.73
2022-11-21T20:20:55.303Z,594.57
2022-11-21T20:23:01.739Z,603.20
2022-11-21T20:25:09.368Z,571.59
2022-11-21T20:27:19.052Z,682.07
2022-11-21T20:29:25.348Z,618.46
2022-11-21T20:31:35.291Z,549.59
2022-11-21T20:33:45.685Z,598.36
2022-11-21T20:35:51.783Z,610.66
2022-11-21T20:37:57.998Z,552.70
2022-11-21T20:40:05.275Z,550.85
2022-11-21T20:42:11.487Z,573.32
2022-11-21T20:44:57.059Z,573.24
2022-11-21T20:46:51.658Z,567.99
2022-11-21T20:49:01.275Z,578.12
2022-11-21T20:53:53.156Z,538.94
2022-11-21T20:56:05.573Z,549.46
2022-11-21T20:58:12.559Z,611.49
2022-11-21T21:00:23.077Z,656.12
2022-11-21T21:02:29.105Z,637.84
2022-11-21T21:04:35.274Z,618.41
2022-11-21T21:06:43.737Z,696.09
2022-11-21T21:08:51.429Z,692.17
2022-11-21T21:11:16.556Z,618.59
2022-11-21T21:13:33.753Z,569.13
2022-11-21T21:15:43.041Z,565.14
2022-11-21T21:17:51.474Z,580.02
2022-11-21T21:19:58.758Z,588.43
2022-11-21T21:22:05.217Z,667.09
2022-11-21T21:24:15.467Z,906.88
2022-11-21T21:26:26.421Z,734.52
2022-11-21T21:28:33.915Z,722.80
2022-11-21T21:30:45.329Z,794.77
2022-11-21T21:32:52.295Z,851.63
2022-11-21T21:34:59.366Z,919.08
2022-11-21T21:37:06.779Z,840.39
2022-11-21T21:39:15.188Z,862.71
2022-11-21T21:41:21.838Z,837.47
2022-11-21T21:43:27.929Z,857.01
2022-11-21T21:45:35.648Z,785.62
2022-11-21T21:47:44.368Z,819.28
2022-11-21T21:49:50.996Z,857.70
2022-11-21T21:51:58.010Z,778.35
2022-11-21T21:54:04.058Z,785.48
2022-11-21T21:56:11.576Z,901.71
2022-11-21T21:58:18.431Z,1487.05
2022-11-21T22:00:24.764Z,1170.04
2022-11-21T22:02:30.910Z,1185.62
2022-11-21T22:04:40.559Z,1244.74
2022-11-21T22:06:46.833Z,1165.82
2022-11-21T22:08:54.606Z,1045.52
2022-11-21T22:11:07.669Z,921.77
2022-11-21T22:13:14.414Z,974.55
2022-11-21T22:15:20.595Z,1008.43
2022-11-21T22:17:28.172Z,990.83
2022-11-21T22:19:34.720Z,912.32
2022-11-21T22:21:43.869Z,1027.48
2022-11-21T22:24:17.778Z,1014.78
2022-11-21T22:26:19.476Z,1022.92
2022-11-21T22:28:25.699Z,1065.42
2022-11-21T22:30:32.691Z,1050.92
2022-11-21T22:32:39.256Z,1012.58
2022-11-21T22:34:45.424Z,970.91
2022-11-21T22:36:55.067Z,951.43
2022-11-21T22:39:01.184Z,935.56
2022-11-21T22:41:10.798Z,907.01
2022-11-21T22:43:17.768Z,957.10
2022-11-21T22:45:24.018Z,966.02
2022-11-21T22:47:30.141Z,957.10
2022-11-21T22:49:37.020Z,939.57
2022-11-21T22:51:43.329Z,838.10
2022-11-21T22:53:53.916Z,763.07
2022-11-21T22:56:03.879Z,808.05
2022-11-21T22:58:10.384Z,818.99
2022-11-21T23:00:19.602Z,835.25
2022-11-21T23:02:26.784Z,884.81
2022-11-21T23:04:35.142Z,766.02
2022-11-21T23:06:41.911Z,737.89
2022-11-21T23:08:53.126Z,801.74
2022-11-21T23:11:06.577Z,793.45
2022-11-21T23:13:12.752Z,894.87
2022-11-21T23:15:20.279Z,946.81
2022-11-21T23:17:26.645Z,928.51
2022-11-21T23:19:32.818Z,957.89
2022-11-21T23:21:39.861Z,861.31
2022-11-21T23:23:46.945Z,816.13
2022-11-21T23:25:56.970Z,774.46
2022-11-21T23:28:03.981Z,709.84
2022-11-21T23:30:12.934Z,817.87
